sensor_id;sensor_type;location;lat;lon;timestamp;temperature;humidity
44431;DHT22;30135;47.866;-4.222;2023-01-19T00:00:24;6.70;92.40
44431;DHT22;30135;47.866;-4.222;2023-01-19T00:02:50;6.70;92.40
44431;DHT22;30135;47.866;-4.222;2023-01-19T00:05:16;6.60;92.30
44431;DHT22;30135;47.866;-4.222;2023-01-19T00:07:43;6.60;92.20
44431;DHT22;30135;47.866;-4.222;2023-01-19T00:10:09;6.60;92.20
44431;DHT22;30135;47.866;-4.222;2023-01-19T00:12:35;6.60;92.20
44431;DHT22;30135;47.866;-4.222;2023-01-19T00:15:01;6.50;92.10
44431;DHT22;30135;47.866;-4.222;2023-01-19T00:17:27;6.50;92.10
44431;DHT22;30135;47.866;-4.222;2023-01-19T00:19:59;6.50;92.10
44431;DHT22;30135;47.866;-4.222;2023-01-19T00:22:28;6.40;92.10
44431;DHT22;30135;47.866;-4.222;2023-01-19T00:24:54;6.40;92.10
44431;DHT22;30135;47.866;-4.222;2023-01-19T00:27:20;6.30;92.10
44431;DHT22;30135;47.866;-4.222;2023-01-19T00:29:46;6.30;92.10
44431;DHT22;30135;47.866;-4.222;2023-01-19T00:32:13;6.30;92.20
44431;DHT22;30135;47.866;-4.222;2023-01-19T00:34:39;6.20;92.20
44431;DHT22;30135;47.866;-4.222;2023-01-19T00:37:14;6.20;92.20
44431;DHT22;30135;47.866;-4.222;2023-01-19T00:39:44;6.20;92.30
44431;DHT22;30135;47.866;-4.222;2023-01-19T00:42:11;6.20;92.30
44431;DHT22;30135;47.866;-4.222;2023-01-19T00:45:13;6.20;92.40
44431;DHT22;30135;47.866;-4.222;2023-01-19T00:47:40;6.10;92.50
44431;DHT22;30135;47.866;-4.222;2023-01-19T00:50:11;6.20;92.70
44431;DHT22;30135;47.866;-4.222;2023-01-19T00:52:40;6.10;92.80
44431;DHT22;30135;47.866;-4.222;2023-01-19T00:55:07;6.20;92.90
44431;DHT22;30135;47.866;-4.222;2023-01-19T00:57:38;6.20;92.90
44431;DHT22;30135;47.866;-4.222;2023-01-19T01:00:13;6.20;92.90
44431;DHT22;30135;47.866;-4.222;2023-01-19T01:02:42;6.20;93.00
44431;DHT22;30135;47.866;-4.222;2023-01-19T01:05:09;6.20;93.00
44431;DHT22;30135;47.866;-4.222;2023-01-19T01:07:36;6.20;93.00
44431;DHT22;30135;47.866;-4.222;2023-01-19T01:10:10;6.20;93.00
44431;DHT22;30135;47.866;-4.222;2023-01-19T01:12:47;6.20;92.90
44431;DHT22;30135;47.866;-4.222;2023-01-19T01:15:14;6.20;92.90
44431;DHT22;30135;47.866;-4.222;2023-01-19T01:17:41;6.20;92.80
44431;DHT22;30135;47.866;-4.222;2023-01-19T01:22:42;6.20;92.80
44431;DHT22;30135;47.866;-4.222;2023-01-19T01:25:13;6.20;92.80
44431;DHT22;30135;47.866;-4.222;2023-01-19T01:27:41;6.10;92.70
44431;DHT22;30135;47.866;-4.222;2023-01-19T01:30:08;6.10;92.70
44431;DHT22;30135;47.866;-4.222;2023-01-19T01:32:36;6.10;92.70
44431;DHT22;30135;47.866;-4.222;2023-01-19T01:35:02;6.10;92.60
44431;DHT22;30135;47.866;-4.222;2023-01-19T01:37:28;6.10;92.60
44431;DHT22;30135;47.866;-4.222;2023-01-19T01:39:54;6.10;92.60
44431;DHT22;30135;47.866;-4.222;2023-01-19T01:42:26;6.00;92.50
44431;DHT22;30135;47.866;-4.222;2023-01-19T01:44:56;6.00;92.60
44431;DHT22;30135;47.866;-4.222;2023-01-19T01:47:44;6.00;92.60
44431;DHT22;30135;47.866;-4.222;2023-01-19T01:50:16;6.00;92.50
44431;DHT22;30135;47.866;-4.222;2023-01-19T01:55:46;5.90;92.50
44431;DHT22;30135;47.866;-4.222;2023-01-19T01:58:14;5.90;92.60
44431;DHT22;30135;47.866;-4.222;2023-01-19T02:00:41;5.90;92.60
44431;DHT22;30135;47.866;-4.222;2023-01-19T02:03:26;5.90;92.70
44431;DHT22;30135;47.866;-4.222;2023-01-19T02:05:54;5.90;92.80
44431;DHT22;30135;47.866;-4.222;2023-01-19T02:08:46;5.80;92.80
44431;DHT22;30135;47.866;-4.222;2023-01-19T02:11:48;5.80;92.80
44431;DHT22;30135;47.866;-4.222;2023-01-19T02:14:34;5.80;92.80
44431;DHT22;30135;47.866;-4.222;2023-01-19T02:17:04;5.80;92.80
44431;DHT22;30135;47.866;-4.222;2023-01-19T02:19:41;5.80;92.80
44431;DHT22;30135;47.866;-4.222;2023-01-19T02:22:29;5.80;92.90
44431;DHT22;30135;47.866;-4.222;2023-01-19T02:25:05;5.80;93.00
44431;DHT22;30135;47.866;-4.222;2023-01-19T02:27:42;5.80;93.10
44431;DHT22;30135;47.866;-4.222;2023-01-19T02:30:11;5.70;93.20
44431;DHT22;30135;47.866;-4.222;2023-01-19T02:32:38;5.80;93.30
44431;DHT22;30135;47.866;-4.222;2023-01-19T02:35:05;5.80;93.40
44431;DHT22;30135;47.866;-4.222;2023-01-19T02:37:39;5.80;93.40
44431;DHT22;30135;47.866;-4.222;2023-01-19T02:40:17;5.80;93.40
44431;DHT22;30135;47.866;-4.222;2023-01-19T02:42:49;5.80;93.40
44431;DHT22;30135;47.866;-4.222;2023-01-19T02:45:18;5.80;93.30
44431;DHT22;30135;47.866;-4.222;2023-01-19T02:47:49;5.80;93.40
44431;DHT22;30135;47.866;-4.222;2023-01-19T02:50:37;5.80;93.50
44431;DHT22;30135;47.866;-4.222;2023-01-19T03:05:15;5.80;93.80
44431;DHT22;30135;47.866;-4.222;2023-01-19T03:16:11;5.80;93.70
44431;DHT22;30135;47.866;-4.222;2023-01-19T03:18:40;5.80;93.90
44431;DHT22;30135;47.866;-4.222;2023-01-19T03:21:11;5.90;94.10
44431;DHT22;30135;47.866;-4.222;2023-01-19T03:23:44;5.90;94.20
44431;DHT22;30135;47.866;-4.222;2023-01-19T03:26:16;5.90;94.30
44431;DHT22;30135;47.866;-4.222;2023-01-19T03:28:46;6.00;94.40
44431;DHT22;30135;47.866;-4.222;2023-01-19T03:31:17;6.00;94.40
44431;DHT22;30135;47.866;-4.222;2023-01-19T03:33:57;6.10;94.40
44431;DHT22;30135;47.866;-4.222;2023-01-19T03:36:32;6.10;94.30
44431;DHT22;30135;47.866;-4.222;2023-01-19T03:39:02;6.10;94.40
44431;DHT22;30135;47.866;-4.222;2023-01-19T03:41:31;6.10;94.30
44431;DHT22;30135;47.866;-4.222;2023-01-19T03:43:59;6.10;94.30
44431;DHT22;30135;47.866;-4.222;2023-01-19T03:46:26;6.20;94.30
44431;DHT22;30135;47.866;-4.222;2023-01-19T03:48:52;6.10;94.20
44431;DHT22;30135;47.866;-4.222;2023-01-19T03:51:20;6.10;94.20
44431;DHT22;30135;47.866;-4.222;2023-01-19T03:53:46;6.10;94.20
44431;DHT22;30135;47.866;-4.222;2023-01-19T03:56:22;6.10;94.10
44431;DHT22;30135;47.866;-4.222;2023-01-19T03:58:49;6.10;94.10
44431;DHT22;30135;47.866;-4.222;2023-01-19T04:01:17;6.10;94.10
44431;DHT22;30135;47.866;-4.222;2023-01-19T04:03:50;6.10;94.10
44431;DHT22;30135;47.866;-4.222;2023-01-19T04:06:20;6.10;94.10
44431;DHT22;30135;47.866;-4.222;2023-01-19T04:08:48;6.10;94.20
44431;DHT22;30135;47.866;-4.222;2023-01-19T04:11:15;6.10;94.20
44431;DHT22;30135;47.866;-4.222;2023-01-19T04:13:41;6.10;94.20
44431;DHT22;30135;47.866;-4.222;2023-01-19T04:16:10;6.10;94.30
44431;DHT22;30135;47.866;-4.222;2023-01-19T04:18:48;6.10;94.50
44431;DHT22;30135;47.866;-4.222;2023-01-19T04:21:20;6.20;94.60
44431;DHT22;30135;47.866;-4.222;2023-01-19T04:23:48;6.20;94.70
44431;DHT22;30135;47.866;-4.222;2023-01-19T04:26:15;6.20;94.80
44431;DHT22;30135;47.866;-4.222;2023-01-19T04:28:41;6.20;94.80
44431;DHT22;30135;47.866;-4.222;2023-01-19T04:31:07;6.20;94.80
44431;DHT22;30135;47.866;-4.222;2023-01-19T04:33:33;6.30;94.70
44431;DHT22;30135;47.866;-4.222;2023-01-19T04:35:59;6.30;94.70
44431;DHT22;30135;47.866;-4.222;2023-01-19T04:38:25;6.30;94.70
44431;DHT22;30135;47.866;-4.222;2023-01-19T04:40:53;6.30;94.70
44431;DHT22;30135;47.866;-4.222;2023-01-19T04:43:20;6.30;94.60
44431;DHT22;30135;47.866;-4.222;2023-01-19T04:45:47;6.30;94.60
44431;DHT22;30135;47.866;-4.222;2023-01-19T04:48:14;6.30;94.70
44431;DHT22;30135;47.866;-4.222;2023-01-19T04:50:40;6.30;94.70
44431;DHT22;30135;47.866;-4.222;2023-01-19T04:53:06;6.30;94.70
44431;DHT22;30135;47.866;-4.222;2023-01-19T04:55:33;6.30;94.70
44431;DHT22;30135;47.866;-4.222;2023-01-19T04:57:59;6.30;94.80
44431;DHT22;30135;47.866;-4.222;2023-01-19T05:00:25;6.30;94.80
44431;DHT22;30135;47.866;-4.222;2023-01-19T05:02:52;6.30;94.80
44431;DHT22;30135;47.866;-4.222;2023-01-19T05:05:18;6.30;94.90
44431;DHT22;30135;47.866;-4.222;2023-01-19T05:07:44;6.30;94.90
44431;DHT22;30135;47.866;-4.222;2023-01-19T05:10:10;6.30;94.90
44431;DHT22;30135;47.866;-4.222;2023-01-19T05:12:36;6.30;94.90
44431;DHT22;30135;47.866;-4.222;2023-01-19T05:15:03;6.30;94.90
44431;DHT22;30135;47.866;-4.222;2023-01-19T05:17:29;6.40;95.00
44431;DHT22;30135;47.866;-4.222;2023-01-19T05:19:55;6.30;95.00
44431;DHT22;30135;47.866;-4.222;2023-01-19T05:22:22;6.40;95.10
44431;DHT22;30135;47.866;-4.222;2023-01-19T05:24:50;6.30;95.10
44431;DHT22;30135;47.866;-4.222;2023-01-19T05:27:17;6.30;95.10
44431;DHT22;30135;47.866;-4.222;2023-01-19T05:29:46;6.40;95.10
44431;DHT22;30135;47.866;-4.222;2023-01-19T05:32:17;6.30;95.10
44431;DHT22;30135;47.866;-4.222;2023-01-19T05:34:52;6.40;95.20
44431;DHT22;30135;47.866;-4.222;2023-01-19T05:37:20;6.40;95.20
44431;DHT22;30135;47.866;-4.222;2023-01-19T05:39:48;6.40;95.30
44431;DHT22;30135;47.866;-4.222;2023-01-19T05:42:17;6.40;95.30
44431;DHT22;30135;47.866;-4.222;2023-01-19T05:44:46;6.40;95.40
44431;DHT22;30135;47.866;-4.222;2023-01-19T05:47:27;6.40;95.40
44431;DHT22;30135;47.866;-4.222;2023-01-19T05:49:59;6.40;95.40
44431;DHT22;30135;47.866;-4.222;2023-01-19T05:52:29;6.40;95.50
44431;DHT22;30135;47.866;-4.222;2023-01-19T05:55:10;6.40;95.50
44431;DHT22;30135;47.866;-4.222;2023-01-19T05:57:52;6.40;95.50
44431;DHT22;30135;47.866;-4.222;2023-01-19T06:00:28;6.50;95.50
44431;DHT22;30135;47.866;-4.222;2023-01-19T06:03:03;6.40;95.50
44431;DHT22;30135;47.866;-4.222;2023-01-19T06:05:40;6.40;95.50
44431;DHT22;30135;47.866;-4.222;2023-01-19T06:08:09;6.40;95.60
44431;DHT22;30135;47.866;-4.222;2023-01-19T06:10:37;6.40;95.70
44431;DHT22;30135;47.866;-4.222;2023-01-19T06:13:09;6.50;95.80
44431;DHT22;30135;47.866;-4.222;2023-01-19T06:15:39;6.40;95.80
44431;DHT22;30135;47.866;-4.222;2023-01-19T06:18:09;6.50;95.90
44431;DHT22;30135;47.866;-4.222;2023-01-19T06:20:41;6.50;95.90
44431;DHT22;30135;47.866;-4.222;2023-01-19T06:23:12;6.40;96.00
44431;DHT22;30135;47.866;-4.222;2023-01-19T06:25:44;6.50;96.10
44431;DHT22;30135;47.866;-4.222;2023-01-19T06:28:13;6.50;96.10
44431;DHT22;30135;47.866;-4.222;2023-01-19T06:30:52;6.50;96.10
44431;DHT22;30135;47.866;-4.222;2023-01-19T06:33:23;6.50;96.10
44431;DHT22;30135;47.866;-4.222;2023-01-19T06:35:52;6.50;96.10
44431;DHT22;30135;47.866;-4.222;2023-01-19T06:38:21;6.50;96.10
44431;DHT22;30135;47.866;-4.222;2023-01-19T06:41:08;6.50;96.10
44431;DHT22;30135;47.866;-4.222;2023-01-19T06:43:37;6.60;96.10
44431;DHT22;30135;47.866;-4.222;2023-01-19T06:46:05;6.60;96.10
44431;DHT22;30135;47.866;-4.222;2023-01-19T06:48:34;6.50;96.10
44431;DHT22;30135;47.866;-4.222;2023-01-19T06:51:03;6.50;96.10
44431;DHT22;30135;47.866;-4.222;2023-01-19T06:53:32;6.50;96.20
44431;DHT22;30135;47.866;-4.222;2023-01-19T06:56:04;6.50;96.20
44431;DHT22;30135;47.866;-4.222;2023-01-19T06:58:35;6.50;96.20
44431;DHT22;30135;47.866;-4.222;2023-01-19T07:01:08;6.50;96.30
44431;DHT22;30135;47.866;-4.222;2023-01-19T07:03:38;6.50;96.30
44431;DHT22;30135;47.866;-4.222;2023-01-19T07:06:06;6.50;96.40
44431;DHT22;30135;47.866;-4.222;2023-01-19T07:08:35;6.50;96.40
44431;DHT22;30135;47.866;-4.222;2023-01-19T07:11:07;6.50;96.50
44431;DHT22;30135;47.866;-4.222;2023-01-19T07:13:38;6.60;96.60
44431;DHT22;30135;47.866;-4.222;2023-01-19T07:16:12;6.60;96.60
44431;DHT22;30135;47.866;-4.222;2023-01-19T07:18:40;6.60;96.70
44431;DHT22;30135;47.866;-4.222;2023-01-19T07:21:09;6.60;96.70
44431;DHT22;30135;47.866;-4.222;2023-01-19T07:23:37;6.60;96.80
44431;DHT22;30135;47.866;-4.222;2023-01-19T07:26:05;6.60;96.80
44431;DHT22;30135;47.866;-4.222;2023-01-19T07:28:34;6.60;96.90
44431;DHT22;30135;47.866;-4.222;2023-01-19T07:31:08;6.60;96.90
44431;DHT22;30135;47.866;-4.222;2023-01-19T07:33:40;6.60;96.90
44431;DHT22;30135;47.866;-4.222;2023-01-19T07:36:10;6.60;96.90
44431;DHT22;30135;47.866;-4.222;2023-01-19T07:38:37;6.60;97.00
44431;DHT22;30135;47.866;-4.222;2023-01-19T07:41:06;6.60;97.00
44431;DHT22;30135;47.866;-4.222;2023-01-19T07:43:35;6.70;97.10
44431;DHT22;30135;47.866;-4.222;2023-01-19T07:46:03;6.70;97.10
44431;DHT22;30135;47.866;-4.222;2023-01-19T07:48:34;6.70;97.10
44431;DHT22;30135;47.866;-4.222;2023-01-19T07:51:16;6.70;97.10
44431;DHT22;30135;47.866;-4.222;2023-01-19T07:53:50;6.70;97.20
44431;DHT22;30135;47.866;-4.222;2023-01-19T07:56:24;6.70;97.20
44431;DHT22;30135;47.866;-4.222;2023-01-19T07:59:02;6.70;97.20
44431;DHT22;30135;47.866;-4.222;2023-01-19T08:01:37;6.70;97.20
44431;DHT22;30135;47.866;-4.222;2023-01-19T08:04:17;6.70;97.30
44431;DHT22;30135;47.866;-4.222;2023-01-19T08:06:49;6.70;97.30
44431;DHT22;30135;47.866;-4.222;2023-01-19T08:09:20;6.70;97.30
44431;DHT22;30135;47.866;-4.222;2023-01-19T08:12:02;6.70;97.40
44431;DHT22;30135;47.866;-4.222;2023-01-19T08:14:37;6.70;97.40
44431;DHT22;30135;47.866;-4.222;2023-01-19T08:17:16;6.70;97.40
44431;DHT22;30135;47.866;-4.222;2023-01-19T08:19:55;6.70;97.50
44431;DHT22;30135;47.866;-4.222;2023-01-19T08:22:24;6.70;97.50
44431;DHT22;30135;47.866;-4.222;2023-01-19T08:25:02;6.70;97.50
44431;DHT22;30135;47.866;-4.222;2023-01-19T08:27:43;6.70;97.60
44431;DHT22;30135;47.866;-4.222;2023-01-19T08:30:34;6.70;97.60
44431;DHT22;30135;47.866;-4.222;2023-01-19T08:33:07;6.70;97.60
44431;DHT22;30135;47.866;-4.222;2023-01-19T08:35:55;6.80;97.70
44431;DHT22;30135;47.866;-4.222;2023-01-19T08:38:31;6.80;97.80
44431;DHT22;30135;47.866;-4.222;2023-01-19T08:41:01;6.80;97.80
44431;DHT22;30135;47.866;-4.222;2023-01-19T08:43:31;6.80;97.80
44431;DHT22;30135;47.866;-4.222;2023-01-19T08:46:12;6.80;97.80
44431;DHT22;30135;47.866;-4.222;2023-01-19T08:48:46;6.80;97.90
44431;DHT22;30135;47.866;-4.222;2023-01-19T08:51:16;6.80;97.90
44431;DHT22;30135;47.866;-4.222;2023-01-19T08:53:53;6.80;98.00
44431;DHT22;30135;47.866;-4.222;2023-01-19T08:56:25;6.80;98.00
44431;DHT22;30135;47.866;-4.222;2023-01-19T08:58:56;6.80;98.00
44431;DHT22;30135;47.866;-4.222;2023-01-19T09:01:26;6.80;98.10
44431;DHT22;30135;47.866;-4.222;2023-01-19T09:03:59;6.80;98.10
44431;DHT22;30135;47.866;-4.222;2023-01-19T09:06:31;6.80;98.10
44431;DHT22;30135;47.866;-4.222;2023-01-19T09:08:59;6.90;98.20
44431;DHT22;30135;47.866;-4.222;2023-01-19T09:11:29;6.90;98.40
44431;DHT22;30135;47.866;-4.222;2023-01-19T09:13:58;6.90;98.20
44431;DHT22;30135;47.866;-4.222;2023-01-19T09:16:27;6.90;98.30
44431;DHT22;30135;47.866;-4.222;2023-01-19T09:19:14;6.90;98.70
44431;DHT22;30135;47.866;-4.222;2023-01-19T09:21:46;6.90;98.40
44431;DHT22;30135;47.866;-4.222;2023-01-19T09:24:14;6.90;98.40
44431;DHT22;30135;47.866;-4.222;2023-01-19T09:26:41;6.90;98.40
44431;DHT22;30135;47.866;-4.222;2023-01-19T09:29:14;7.00;98.50
44431;DHT22;30135;47.866;-4.222;2023-01-19T09:31:56;7.00;98.50
44431;DHT22;30135;47.866;-4.222;2023-01-19T09:34:24;7.00;98.60
44431;DHT22;30135;47.866;-4.222;2023-01-19T09:37:02;7.00;98.60
44431;DHT22;30135;47.866;-4.222;2023-01-19T09:39:30;7.00;98.60
44431;DHT22;30135;47.866;-4.222;2023-01-19T09:44:49;7.00;98.70
44431;DHT22;30135;47.866;-4.222;2023-01-19T09:47:22;7.00;98.70
44431;DHT22;30135;47.866;-4.222;2023-01-19T09:50:12;7.10;98.80
44431;DHT22;30135;47.866;-4.222;2023-01-19T09:52:57;7.10;98.80
44431;DHT22;30135;47.866;-4.222;2023-01-19T09:55:29;7.10;98.80
44431;DHT22;30135;47.866;-4.222;2023-01-19T09:57:58;7.10;98.90
44431;DHT22;30135;47.866;-4.222;2023-01-19T10:00:53;7.10;98.90
44431;DHT22;30135;47.866;-4.222;2023-01-19T10:03:24;7.10;99.00
44431;DHT22;30135;47.866;-4.222;2023-01-19T10:06:01;7.10;99.00
44431;DHT22;30135;47.866;-4.222;2023-01-19T10:08:47;7.20;99.10
44431;DHT22;30135;47.866;-4.222;2023-01-19T10:11:39;7.20;99.20
44431;DHT22;30135;47.866;-4.222;2023-01-19T10:14:44;7.20;99.30
44431;DHT22;30135;47.866;-4.222;2023-01-19T10:20:18;7.20;99.40
44431;DHT22;30135;47.866;-4.222;2023-01-19T10:22:56;7.30;99.40
44431;DHT22;30135;47.866;-4.222;2023-01-19T10:25:26;7.30;99.40
44431;DHT22;30135;47.866;-4.222;2023-01-19T10:27:52;7.30;99.40
44431;DHT22;30135;47.866;-4.222;2023-01-19T10:30:23;7.30;99.40
44431;DHT22;30135;47.866;-4.222;2023-01-19T10:32:57;7.30;99.60
44431;DHT22;30135;47.866;-4.222;2023-01-19T10:35:23;7.40;99.50
44431;DHT22;30135;47.866;-4.222;2023-01-19T10:37:59;7.40;99.50
44431;DHT22;30135;47.866;-4.222;2023-01-19T10:40:33;7.40;99.60
44431;DHT22;30135;47.866;-4.222;2023-01-19T10:43:34;7.40;99.60
44431;DHT22;30135;47.866;-4.222;2023-01-19T10:46:33;7.50;99.90
44431;DHT22;30135;47.866;-4.222;2023-01-19T10:49:29;7.50;99.70
44431;DHT22;30135;47.866;-4.222;2023-01-19T10:51:59;7.50;99.70
44431;DHT22;30135;47.866;-4.222;2023-01-19T10:54:28;7.50;99.70
44431;DHT22;30135;47.866;-4.222;2023-01-19T10:56:58;7.50;99.70
44431;DHT22;30135;47.866;-4.222;2023-01-19T10:59:44;7.50;99.80
44431;DHT22;30135;47.866;-4.222;2023-01-19T11:05:21;7.60;99.90
44431;DHT22;30135;47.866;-4.222;2023-01-19T11:07:48;7.60;99.90
44431;DHT22;30135;47.866;-4.222;2023-01-19T11:13:05;7.60;99.90
44431;DHT22;30135;47.866;-4.222;2023-01-19T11:15:48;7.60;99.90
44431;DHT22;30135;47.866;-4.222;2023-01-19T11:18:38;7.60;99.90
44431;DHT22;30135;47.866;-4.222;2023-01-19T11:21:14;7.70;99.90
44431;DHT22;30135;47.866;-4.222;2023-01-19T11:24:03;7.70;99.90
44431;DHT22;30135;47.866;-4.222;2023-01-19T11:26:45;7.70;99.90
44431;DHT22;30135;47.866;-4.222;2023-01-19T11:29:25;7.70;99.90
44431;DHT22;30135;47.866;-4.222;2023-01-19T11:31:54;7.70;99.90
44431;DHT22;30135;47.866;-4.222;2023-01-19T11:34:50;7.60;99.90
44431;DHT22;30135;47.866;-4.222;2023-01-19T11:37:26;7.60;99.90
44431;DHT22;30135;47.866;-4.222;2023-01-19T11:40:06;7.60;99.80
44431;DHT22;30135;47.866;-4.222;2023-01-19T11:42:39;7.60;99.80
44431;DHT22;30135;47.866;-4.222;2023-01-19T11:45:09;7.60;99.90
44431;DHT22;30135;47.866;-4.222;2023-01-19T11:47:50;7.50;99.80
44431;DHT22;30135;47.866;-4.222;2023-01-19T11:50:35;7.50;99.80
44431;DHT22;30135;47.866;-4.222;2023-01-19T11:53:33;7.50;99.80
44431;DHT22;30135;47.866;-4.222;2023-01-19T11:56:11;7.50;99.90
44431;DHT22;30135;47.866;-4.222;2023-01-19T11:58:42;7.50;99.90
44431;DHT22;30135;47.866;-4.222;2023-01-19T12:04:41;7.40;99.90
44431;DHT22;30135;47.866;-4.222;2023-01-19T12:07:11;7.30;99.90
44431;DHT22;30135;47.866;-4.222;2023-01-19T12:09:52;7.30;99.90
44431;DHT22;30135;47.866;-4.222;2023-01-19T12:12:29;7.40;99.90
44431;DHT22;30135;47.866;-4.222;2023-01-19T12:18:02;7.40;99.90
44431;DHT22;30135;47.866;-4.222;2023-01-19T12:20:53;7.40;99.90
44431;DHT22;30135;47.866;-4.222;2023-01-19T12:29:19;7.30;99.90
44431;DHT22;30135;47.866;-4.222;2023-01-19T12:34:42;7.30;99.90
44431;DHT22;30135;47.866;-4.222;2023-01-19T12:40:27;7.30;99.90
44431;DHT22;30135;47.866;-4.222;2023-01-19T12:43:04;7.30;99.90
44431;DHT22;30135;47.866;-4.222;2023-01-19T12:45:41;7.30;99.90
44431;DHT22;30135;47.866;-4.222;2023-01-19T12:48:23;7.30;99.90
44431;DHT22;30135;47.866;-4.222;2023-01-19T12:51:04;7.20;99.90
44431;DHT22;30135;47.866;-4.222;2023-01-19T12:53:34;7.20;99.90
44431;DHT22;30135;47.866;-4.222;2023-01-19T12:56:06;7.20;99.90
44431;DHT22;30135;47.866;-4.222;2023-01-19T12:58:35;7.20;99.80
44431;DHT22;30135;47.866;-4.222;2023-01-19T13:01:17;7.10;99.80
44431;DHT22;30135;47.866;-4.222;2023-01-19T13:04:04;7.20;99.70
44431;DHT22;30135;47.866;-4.222;2023-01-19T13:09:33;7.10;99.80
44431;DHT22;30135;47.866;-4.222;2023-01-19T13:12:21;7.10;99.50
44431;DHT22;30135;47.866;-4.222;2023-01-19T13:15:07;7.00;99.50
44431;DHT22;30135;47.866;-4.222;2023-01-19T13:17:58;7.00;99.50
44431;DHT22;30135;47.866;-4.222;2023-01-19T13:20:40;7.00;99.60
44431;DHT22;30135;47.866;-4.222;2023-01-19T13:23:28;7.00;99.70
44431;DHT22;30135;47.866;-4.222;2023-01-19T13:26:38;7.00;99.70
44431;DHT22;30135;47.866;-4.222;2023-01-19T13:29:39;7.00;99.70
44431;DHT22;30135;47.866;-4.222;2023-01-19T13:32:15;7.00;99.60
44431;DHT22;30135;47.866;-4.222;2023-01-19T13:34:48;7.00;99.60
44431;DHT22;30135;47.866;-4.222;2023-01-19T13:37:44;7.00;99.60
44431;DHT22;30135;47.866;-4.222;2023-01-19T13:40:20;7.00;99.50
44431;DHT22;30135;47.866;-4.222;2023-01-19T13:42:55;7.00;99.60
44431;DHT22;30135;47.866;-4.222;2023-01-19T13:45:30;7.00;99.60
44431;DHT22;30135;47.866;-4.222;2023-01-19T13:48:07;7.00;99.60
44431;DHT22;30135;47.866;-4.222;2023-01-19T13:51:03;7.00;99.60
44431;DHT22;30135;47.866;-4.222;2023-01-19T13:54:03;7.00;99.50
44431;DHT22;30135;47.866;-4.222;2023-01-19T13:57:00;7.00;99.40
44431;DHT22;30135;47.866;-4.222;2023-01-19T13:59:39;7.00;99.30
44431;DHT22;30135;47.866;-4.222;2023-01-19T14:02:11;7.00;99.30
44431;DHT22;30135;47.866;-4.222;2023-01-19T14:04:51;7.00;99.30
44431;DHT22;30135;47.866;-4.222;2023-01-19T14:07:26;6.90;99.20
44431;DHT22;30135;47.866;-4.222;2023-01-19T14:10:12;7.00;99.30
44431;DHT22;30135;47.866;-4.222;2023-01-19T14:12:43;7.00;99.30
44431;DHT22;30135;47.866;-4.222;2023-01-19T14:15:13;7.00;99.30
44431;DHT22;30135;47.866;-4.222;2023-01-19T14:21:07;7.00;99.20
44431;DHT22;30135;47.866;-4.222;2023-01-19T14:26:46;6.90;99.10
44431;DHT22;30135;47.866;-4.222;2023-01-19T14:29:25;6.90;99.20
44431;DHT22;30135;47.866;-4.222;2023-01-19T14:37:26;7.00;99.20
44431;DHT22;30135;47.866;-4.222;2023-01-19T14:40:21;7.00;99.10
44431;DHT22;30135;47.866;-4.222;2023-01-19T14:42:54;6.90;98.90
44431;DHT22;30135;47.866;-4.222;2023-01-19T14:48:25;7.00;99.20
44431;DHT22;30135;47.866;-4.222;2023-01-19T14:51:02;7.00;99.10
44431;DHT22;30135;47.866;-4.222;2023-01-19T14:53:37;7.00;99.20
44431;DHT22;30135;47.866;-4.222;2023-01-19T14:56:08;7.10;99.30
44431;DHT22;30135;47.866;-4.222;2023-01-19T14:58:40;7.10;99.30
44431;DHT22;30135;47.866;-4.222;2023-01-19T15:01:08;7.20;99.30
44431;DHT22;30135;47.866;-4.222;2023-01-19T15:03:48;7.20;99.30
44431;DHT22;30135;47.866;-4.222;2023-01-19T15:06:18;7.20;99.20
44431;DHT22;30135;47.866;-4.222;2023-01-19T15:08:46;7.30;99.10
44431;DHT22;30135;47.866;-4.222;2023-01-19T15:11:31;7.30;98.80
44431;DHT22;30135;47.866;-4.222;2023-01-19T15:14:03;7.30;98.90
44431;DHT22;30135;47.866;-4.222;2023-01-19T15:16:32;7.30;98.90
44431;DHT22;30135;47.866;-4.222;2023-01-19T15:19:00;7.30;98.80
44431;DHT22;30135;47.866;-4.222;2023-01-19T15:21:33;7.30;98.80
44431;DHT22;30135;47.866;-4.222;2023-01-19T15:24:00;7.30;98.70
44431;DHT22;30135;47.866;-4.222;2023-01-19T15:26:26;7.30;98.70
44431;DHT22;30135;47.866;-4.222;2023-01-19T15:28:52;7.40;98.60
44431;DHT22;30135;47.866;-4.222;2023-01-19T15:31:22;7.30;98.50
44431;DHT22;30135;47.866;-4.222;2023-01-19T15:33:49;7.30;98.50
44431;DHT22;30135;47.866;-4.222;2023-01-19T15:36:17;7.30;98.40
44431;DHT22;30135;47.866;-4.222;2023-01-19T15:38:45;7.30;98.30
44431;DHT22;30135;47.866;-4.222;2023-01-19T15:43:47;7.30;98.20
44431;DHT22;30135;47.866;-4.222;2023-01-19T15:46:14;7.30;98.10
44431;DHT22;30135;47.866;-4.222;2023-01-19T15:48:41;7.30;98.00
44431;DHT22;30135;47.866;-4.222;2023-01-19T15:51:11;7.30;98.00
44431;DHT22;30135;47.866;-4.222;2023-01-19T15:53:39;7.30;97.90
44431;DHT22;30135;47.866;-4.222;2023-01-19T15:56:13;7.30;97.90
44431;DHT22;30135;47.866;-4.222;2023-01-19T15:58:41;7.30;97.80
44431;DHT22;30135;47.866;-4.222;2023-01-19T16:01:15;7.30;97.80
44431;DHT22;30135;47.866;-4.222;2023-01-19T16:03:43;7.20;97.60
44431;DHT22;30135;47.866;-4.222;2023-01-19T16:06:09;7.20;97.80
44431;DHT22;30135;47.866;-4.222;2023-01-19T16:08:36;7.20;97.80
44431;DHT22;30135;47.866;-4.222;2023-01-19T16:11:06;7.30;97.80
44431;DHT22;30135;47.866;-4.222;2023-01-19T16:13:34;7.20;97.60
44431;DHT22;30135;47.866;-4.222;2023-01-19T16:16:04;7.30;97.60
44431;DHT22;30135;47.866;-4.222;2023-01-19T16:18:32;7.20;97.60
44431;DHT22;30135;47.866;-4.222;2023-01-19T16:20:58;7.20;97.50
44431;DHT22;30135;47.866;-4.222;2023-01-19T16:23:25;7.20;97.50
44431;DHT22;30135;47.866;-4.222;2023-01-19T16:25:56;7.20;97.40
44431;DHT22;30135;47.866;-4.222;2023-01-19T16:28:33;7.20;97.40
44431;DHT22;30135;47.866;-4.222;2023-01-19T16:30:59;7.20;97.30
44431;DHT22;30135;47.866;-4.222;2023-01-19T16:33:25;7.20;97.60
44431;DHT22;30135;47.866;-4.222;2023-01-19T16:35:51;7.20;97.30
44431;DHT22;30135;47.866;-4.222;2023-01-19T16:38:18;7.30;97.30
44431;DHT22;30135;47.866;-4.222;2023-01-19T16:40:44;7.20;97.30
44431;DHT22;30135;47.866;-4.222;2023-01-19T16:43:12;7.30;97.20
44431;DHT22;30135;47.866;-4.222;2023-01-19T16:45:59;7.20;97.00
44431;DHT22;30135;47.866;-4.222;2023-01-19T16:48:27;7.30;96.80
44431;DHT22;30135;47.866;-4.222;2023-01-19T16:51:05;7.20;96.80
44431;DHT22;30135;47.866;-4.222;2023-01-19T16:53:32;7.20;96.70
44431;DHT22;30135;47.866;-4.222;2023-01-19T16:56:04;7.20;96.60
44431;DHT22;30135;47.866;-4.222;2023-01-19T16:58:38;7.20;96.60
44431;DHT22;30135;47.866;-4.222;2023-01-19T17:01:17;7.10;96.50
44431;DHT22;30135;47.866;-4.222;2023-01-19T17:03:44;7.10;96.40
44431;DHT22;30135;47.866;-4.222;2023-01-19T17:06:12;7.10;96.40
44431;DHT22;30135;47.866;-4.222;2023-01-19T17:08:40;7.10;96.30
44431;DHT22;30135;47.866;-4.222;2023-01-19T17:11:17;7.00;96.30
44431;DHT22;30135;47.866;-4.222;2023-01-19T17:14:11;7.00;96.10
44431;DHT22;30135;47.866;-4.222;2023-01-19T17:16:55;7.00;96.20
44431;DHT22;30135;47.866;-4.222;2023-01-19T17:19:21;7.00;96.10
44431;DHT22;30135;47.866;-4.222;2023-01-19T17:21:48;7.00;96.10
44431;DHT22;30135;47.866;-4.222;2023-01-19T17:24:15;7.00;96.00